createdAt,value
2018-08-31T00:02:10.669Z,19.80
2018-08-31T00:04:51.312Z,19.10
2018-08-31T00:07:32.095Z,18.13
2018-08-31T00:10:24.944Z,20.20
2018-08-31T00:12:52.277Z,19.90
2018-08-31T00:15:19.481Z,15.53
2018-08-31T00:17:46.738Z,22.23
2018-08-31T00:20:14.604Z,18.23
2018-08-31T00:22:41.860Z,16.10
2018-08-31T00:26:24.183Z,19.83
2018-08-31T00:29:45.150Z,18.33
2018-08-31T00:34:29.708Z,21.83
2018-08-31T00:39:21.978Z,22.00
2018-08-31T00:42:04.224Z,18.70
2018-08-31T00:44:42.981Z,20.70
2018-08-31T00:47:10.313Z,18.13
2018-08-31T00:49:37.569Z,17.30
2018-08-31T00:52:04.884Z,19.43
2018-08-31T00:54:32.135Z,23.30
2018-08-31T00:56:59.465Z,18.87
2018-08-31T00:59:26.753Z,16.33
2018-08-31T01:01:54.063Z,17.97
2018-08-31T01:04:21.332Z,19.57
2018-08-31T01:06:48.585Z,18.23
2018-08-31T01:09:15.873Z,20.70
2018-08-31T01:11:43.124Z,22.60
2018-08-31T01:14:10.347Z,17.67
2018-08-31T01:16:37.621Z,15.87
2018-08-31T01:19:05.265Z,18.33
2018-08-31T01:21:32.522Z,16.53
2018-08-31T01:23:59.801Z,16.53
2018-08-31T01:26:27.152Z,16.47
2018-08-31T01:28:54.409Z,22.93
2018-08-31T01:31:21.697Z,18.27
2018-08-31T01:33:49.007Z,22.70
2018-08-31T01:36:16.365Z,18.73
2018-08-31T01:38:43.835Z,15.37
2018-08-31T01:41:11.090Z,13.83
2018-08-31T01:43:38.384Z,16.77
2018-08-31T01:46:05.609Z,16.83
2018-08-31T01:48:32.910Z,19.50
2018-08-31T01:51:05.890Z,17.27
2018-08-31T01:53:33.167Z,16.03
2018-08-31T01:56:00.498Z,14.83
2018-08-31T01:58:27.809Z,18.70
2018-08-31T02:00:55.135Z,14.63
2018-08-31T02:03:22.430Z,22.30
2018-08-31T02:05:49.737Z,15.53
2018-08-31T02:08:17.226Z,21.30
2018-08-31T02:10:44.534Z,19.30
2018-08-31T02:13:11.812Z,17.70
2018-08-31T02:15:39.105Z,26.13
2018-08-31T02:18:06.404Z,20.63
2018-08-31T02:20:33.648Z,15.47
2018-08-31T02:23:00.997Z,18.30
2018-08-31T02:25:28.294Z,20.43
2018-08-31T02:27:55.554Z,19.90
2018-08-31T02:30:22.841Z,18.83
2018-08-31T02:32:50.080Z,17.57
2018-08-31T02:35:17.409Z,18.77
2018-08-31T02:37:44.646Z,16.60
2018-08-31T02:40:11.928Z,24.90
2018-08-31T02:42:39.245Z,18.90
2018-08-31T02:45:06.622Z,16.87
2018-08-31T02:47:33.935Z,17.50
2018-08-31T02:50:01.207Z,21.00
2018-08-31T02:52:28.443Z,15.70
2018-08-31T02:54:55.716Z,13.07
2018-08-31T02:57:23.044Z,15.00
2018-08-31T02:59:50.362Z,16.23
2018-08-31T03:02:17.582Z,17.67
2018-08-31T03:04:44.825Z,18.53
2018-08-31T03:07:12.063Z,15.83
2018-08-31T03:09:39.341Z,16.27
2018-08-31T03:12:06.403Z,13.33
2018-08-31T03:14:33.685Z,19.63
2018-08-31T03:17:00.966Z,12.90
2018-08-31T03:19:28.280Z,14.60
2018-08-31T03:21:55.652Z,14.57
2018-08-31T03:24:22.912Z,18.97
2018-08-31T03:26:50.266Z,14.67
2018-08-31T03:29:17.520Z,14.30
2018-08-31T03:31:44.836Z,16.63
2018-08-31T03:34:12.131Z,17.27
2018-08-31T03:36:39.452Z,19.30
2018-08-31T03:39:07.722Z,19.60
2018-08-31T03:41:44.551Z,18.30
2018-08-31T03:44:11.803Z,19.13
2018-08-31T03:46:39.082Z,18.37
2018-08-31T03:49:06.376Z,17.63
2018-08-31T03:51:33.627Z,15.73
2018-08-31T03:54:00.930Z,20.60
2018-08-31T03:56:28.183Z,20.17
2018-08-31T03:58:55.491Z,16.37
2018-08-31T04:01:22.797Z,14.77
2018-08-31T04:03:50.098Z,22.10
2018-08-31T04:06:17.387Z,14.97
2018-08-31T04:08:44.724Z,19.10
2018-08-31T04:11:19.445Z,15.20
2018-08-31T04:13:46.718Z,17.57
2018-08-31T04:16:13.991Z,14.47
2018-08-31T04:18:41.303Z,12.70
2018-08-31T04:21:08.665Z,20.33
2018-08-31T04:23:36.002Z,12.67
2018-08-31T04:26:03.310Z,12.57
2018-08-31T04:28:30.549Z,17.90
2018-08-31T04:30:57.958Z,22.60
2018-08-31T04:33:25.304Z,13.27
2018-08-31T04:35:52.555Z,15.80
2018-08-31T04:38:19.850Z,17.57
2018-08-31T04:40:47.299Z,13.27
2018-08-31T04:43:14.631Z,12.47
2018-08-31T04:45:41.901Z,13.20
2018-08-31T04:48:09.173Z,17.17
2018-08-31T04:50:36.480Z,15.03
2018-08-31T04:53:03.824Z,18.90
2018-08-31T04:55:31.107Z,13.10
2018-08-31T04:57:58.370Z,19.60
2018-08-31T05:00:25.653Z,20.00
2018-08-31T05:02:54.198Z,13.60
2018-08-31T05:05:21.588Z,19.13
2018-08-31T05:07:49.044Z,17.17
2018-08-31T05:10:16.253Z,11.73
2018-08-31T05:12:44.096Z,12.60
2018-08-31T05:15:11.426Z,10.17
2018-08-31T05:17:38.689Z,21.07
2018-08-31T05:20:06.035Z,16.80
2018-08-31T05:22:33.372Z,14.73
2018-08-31T05:25:00.694Z,18.67
2018-08-31T05:27:28.142Z,19.13
2018-08-31T05:29:55.425Z,12.00
2018-08-31T05:32:22.704Z,13.23
2018-08-31T05:34:50.107Z,15.57
2018-08-31T05:37:17.330Z,22.43
2018-08-31T05:39:44.600Z,14.87
2018-08-31T05:42:11.896Z,10.53
2018-08-31T05:44:39.167Z,12.73
2018-08-31T05:47:06.576Z,13.93
2018-08-31T05:49:33.846Z,15.97
2018-08-31T05:52:01.169Z,11.60
2018-08-31T05:54:28.378Z,13.27
2018-08-31T05:56:55.726Z,20.37
2018-08-31T05:59:22.954Z,13.37
2018-08-31T06:01:50.311Z,12.63
2018-08-31T06:04:17.594Z,19.33
2018-08-31T06:06:44.914Z,15.60
2018-08-31T06:09:12.179Z,19.73
2018-08-31T06:11:39.429Z,16.13
2018-08-31T06:14:06.728Z,16.87
2018-08-31T06:16:34.005Z,20.13
2018-08-31T06:19:01.336Z,11.80
2018-08-31T06:21:28.653Z,16.83
2018-08-31T06:23:56.037Z,18.83
2018-08-31T06:26:23.411Z,16.43
2018-08-31T06:28:50.774Z,14.93
2018-08-31T06:31:25.882Z,21.90
2018-08-31T06:33:53.637Z,21.10
2018-08-31T06:36:21.049Z,14.90
2018-08-31T06:38:48.285Z,15.90
2018-08-31T06:41:15.733Z,15.17
2018-08-31T06:43:42.992Z,14.10
2018-08-31T06:46:10.282Z,17.63
2018-08-31T06:48:37.617Z,28.30
2018-08-31T06:51:04.887Z,15.50
2018-08-31T06:53:32.246Z,30.17
2018-08-31T06:55:59.484Z,37.70
2018-08-31T06:58:26.791Z,24.47
2018-08-31T07:00:54.209Z,28.63
2018-08-31T07:03:21.563Z,22.20
2018-08-31T07:05:48.851Z,20.40
2018-08-31T07:08:18.106Z,23.07
2018-08-31T07:10:45.614Z,39.60
2018-08-31T07:13:13.597Z,25.60
2018-08-31T07:15:40.912Z,38.77
2018-08-31T07:18:08.282Z,29.53
2018-08-31T07:20:35.636Z,25.30
2018-08-31T07:23:02.930Z,17.23
2018-08-31T07:25:30.293Z,17.27
2018-08-31T07:27:57.552Z,17.07
2018-08-31T07:30:24.994Z,14.07
2018-08-31T07:32:52.327Z,12.03
2018-08-31T07:35:19.712Z,13.63
2018-08-31T07:37:46.968Z,14.33
2018-08-31T07:40:14.266Z,17.20
2018-08-31T07:42:41.500Z,14.07
2018-08-31T07:45:08.782Z,15.30
2018-08-31T07:47:51.438Z,8.07
2018-08-31T07:50:19.499Z,11.97
2018-08-31T07:52:46.828Z,7.17
2018-08-31T07:55:14.105Z,14.13
2018-08-31T07:57:41.324Z,11.37
2018-08-31T08:00:08.648Z,14.83
2018-08-31T08:02:35.973Z,10.13
2018-08-31T08:05:03.217Z,10.10
2018-08-31T08:07:30.502Z,11.87
2018-08-31T08:09:57.855Z,13.80
2018-08-31T08:12:25.137Z,12.67
2018-08-31T08:14:52.446Z,12.43
2018-08-31T08:17:19.755Z,8.87
2018-08-31T08:19:47.062Z,11.20
2018-08-31T08:22:14.427Z,7.97
2018-08-31T08:24:41.617Z,8.87
2018-08-31T08:27:08.949Z,11.90
2018-08-31T08:29:36.196Z,9.90
2018-08-31T08:32:03.607Z,10.43
2018-08-31T08:34:31.009Z,13.60
2018-08-31T08:36:58.413Z,13.53
2018-08-31T08:39:25.976Z,12.20
2018-08-31T08:41:53.347Z,13.50
2018-08-31T08:44:20.650Z,13.33
2018-08-31T08:46:47.960Z,9.97
2018-08-31T08:49:15.267Z,12.67
2018-08-31T08:51:42.583Z,15.53
2018-08-31T08:54:09.990Z,12.53
2018-08-31T08:56:37.277Z,31.40
2018-08-31T08:59:04.619Z,10.70
2018-08-31T09:01:31.851Z,11.70
2018-08-31T09:03:59.204Z,15.70
2018-08-31T09:06:26.524Z,14.43
2018-08-31T09:08:53.864Z,10.27
2018-08-31T09:11:21.178Z,13.10
2018-08-31T09:13:48.570Z,7.40
2018-08-31T09:16:15.976Z,12.97
2018-08-31T09:18:43.260Z,9.47
2018-08-31T09:21:10.656Z,8.73
2018-08-31T09:23:37.941Z,11.33
2018-08-31T09:26:07.890Z,9.87
2018-08-31T09:28:35.218Z,9.70
2018-08-31T09:31:04.851Z,7.17
2018-08-31T09:33:32.221Z,11.80
2018-08-31T09:35:59.481Z,20.43
2018-08-31T09:38:26.807Z,17.50
2018-08-31T09:40:53.991Z,13.43
2018-08-31T09:43:21.287Z,9.73
2018-08-31T09:45:48.649Z,12.57
2018-08-31T09:48:15.987Z,14.60
2018-08-31T09:50:43.284Z,13.10
2018-08-31T09:53:10.656Z,7.13
2018-08-31T09:55:38.015Z,14.47
2018-08-31T09:58:05.265Z,13.23
2018-08-31T10:00:38.325Z,22.63
2018-08-31T10:03:06.193Z,29.20
2018-08-31T10:05:33.635Z,17.27
2018-08-31T10:08:00.890Z,15.10
2018-08-31T10:10:30.364Z,29.07
2018-08-31T10:12:57.847Z,66.60
2018-08-31T10:15:26.768Z,17.90
2018-08-31T10:17:56.050Z,14.23
2018-08-31T10:20:24.159Z,19.37
2018-08-31T10:22:52.844Z,16.93
2018-08-31T10:25:22.062Z,11.80
2018-08-31T10:27:49.453Z,12.30
2018-08-31T10:30:16.943Z,14.87
2018-08-31T10:32:44.197Z,9.00
2018-08-31T10:35:11.580Z,14.13
2018-08-31T10:37:38.877Z,16.00
2018-08-31T10:40:06.191Z,14.60
2018-08-31T10:42:33.468Z,14.40
2018-08-31T10:47:53.366Z,10.67
2018-08-31T10:50:20.644Z,24.93
2018-08-31T10:52:47.986Z,16.00
2018-08-31T10:55:15.792Z,21.10
2018-08-31T10:57:43.084Z,18.57
2018-08-31T11:00:10.490Z,18.70
2018-08-31T11:02:38.259Z,17.73
2018-08-31T11:05:05.609Z,17.20
2018-08-31T11:07:32.949Z,16.53
2018-08-31T11:10:00.162Z,9.50
2018-08-31T11:12:27.442Z,14.07
2018-08-31T11:14:54.706Z,21.80
2018-08-31T11:17:23.828Z,13.30
2018-08-31T11:19:51.095Z,20.43
2018-08-31T11:22:18.352Z,8.93
2018-08-31T11:24:45.660Z,17.50
2018-08-31T11:27:12.945Z,64.50
2018-08-31T11:29:40.211Z,28.23
2018-08-31T11:32:07.504Z,12.30
2018-08-31T11:34:34.795Z,18.40
2018-08-31T11:37:02.099Z,12.93
2018-08-31T11:39:29.414Z,12.20
2018-08-31T11:41:56.597Z,18.67
2018-08-31T11:44:23.889Z,15.00
2018-08-31T11:46:51.196Z,13.50
2018-08-31T11:54:05.226Z,14.20
2018-08-31T11:56:32.477Z,15.63
2018-08-31T11:58:59.887Z,12.93
2018-08-31T12:01:27.239Z,14.67
2018-08-31T12:03:54.419Z,17.80
2018-08-31T12:06:21.694Z,21.00
2018-08-31T12:08:49.008Z,13.27
2018-08-31T12:11:16.342Z,18.43
2018-08-31T12:13:43.598Z,20.53
2018-08-31T12:16:10.881Z,17.07
2018-08-31T12:18:38.158Z,23.70
2018-08-31T12:21:06.274Z,16.87
2018-08-31T12:23:33.608Z,18.87
2018-08-31T12:26:00.938Z,17.30
2018-08-31T12:28:28.174Z,16.67
2018-08-31T12:30:55.449Z,25.17
2018-08-31T12:33:22.679Z,19.83
2018-08-31T12:35:49.959Z,16.43
2018-08-31T12:38:17.372Z,25.20
2018-08-31T12:40:47.757Z,18.30
2018-08-31T12:43:15.066Z,20.70
2018-08-31T12:45:42.359Z,26.30
2018-08-31T12:48:09.642Z,21.20
2018-08-31T12:50:36.906Z,16.03
2018-08-31T12:53:04.198Z,17.10
2018-08-31T12:55:31.476Z,23.53
2018-08-31T12:57:58.934Z,28.07
2018-08-31T13:00:26.232Z,18.07
2018-08-31T13:02:53.434Z,24.07
2018-08-31T13:05:20.748Z,21.97
2018-08-31T13:07:47.991Z,22.27
2018-08-31T13:10:15.313Z,16.00
2018-08-31T13:12:42.519Z,21.37
2018-08-31T13:15:09.825Z,18.70
2018-08-31T13:17:46.982Z,19.03
2018-08-31T13:20:14.245Z,26.07
2018-08-31T13:22:41.948Z,19.60
2018-08-31T13:25:09.303Z,20.00
2018-08-31T13:27:36.626Z,24.90
2018-08-31T13:30:04.141Z,21.03
2018-08-31T13:32:31.427Z,24.20
2018-08-31T13:34:58.771Z,20.10
2018-08-31T13:37:26.134Z,23.70
2018-08-31T13:39:53.448Z,26.20
2018-08-31T13:42:20.726Z,22.27
2018-08-31T13:44:48.078Z,23.10
2018-08-31T13:47:15.331Z,22.03
2018-08-31T13:49:42.648Z,56.43
2018-08-31T13:52:09.991Z,92.07
2018-08-31T13:54:37.237Z,24.93
2018-08-31T13:57:04.577Z,30.83
2018-08-31T13:59:31.777Z,23.80
2018-08-31T14:01:59.054Z,25.63
2018-08-31T14:04:26.340Z,30.63
2018-08-31T14:06:53.656Z,21.47
2018-08-31T14:09:20.939Z,29.90
2018-08-31T14:11:48.221Z,30.00
2018-08-31T14:14:15.490Z,30.47
2018-08-31T14:16:42.754Z,39.77
2018-08-31T14:19:10.064Z,31.07
2018-08-31T14:21:38.018Z,31.10
2018-08-31T14:24:05.509Z,29.43
2018-08-31T14:26:32.801Z,27.17
2018-08-31T14:29:00.151Z,35.00
2018-08-31T14:31:27.521Z,30.40
2018-08-31T14:33:54.874Z,28.70
2018-08-31T14:36:22.157Z,31.00
2018-08-31T14:38:49.714Z,42.50
2018-08-31T14:41:16.976Z,35.43
2018-08-31T14:43:44.301Z,30.80
2018-08-31T14:46:11.624Z,30.07
2018-08-31T14:48:38.907Z,28.10
2018-08-31T14:51:06.190Z,34.20
2018-08-31T14:53:33.473Z,30.33
2018-08-31T14:56:00.721Z,33.00
2018-08-31T14:58:28.051Z,30.43
2018-08-31T15:00:55.284Z,31.30
2018-08-31T15:03:22.521Z,33.50
2018-08-31T15:05:49.842Z,33.30
2018-08-31T15:08:17.047Z,34.40
2018-08-31T15:10:44.358Z,34.47
2018-08-31T15:13:11.761Z,34.90
2018-08-31T15:15:39.007Z,27.13
2018-08-31T15:18:06.386Z,29.83
2018-08-31T15:20:33.725Z,45.33
2018-08-31T15:23:01.066Z,29.40
2018-08-31T15:25:28.498Z,33.40
2018-08-31T15:27:55.627Z,28.03
2018-08-31T15:30:22.920Z,30.03
2018-08-31T15:32:50.150Z,32.53
2018-08-31T15:35:17.428Z,98.83
2018-08-31T15:37:44.687Z,37.27
2018-08-31T15:40:11.977Z,36.60
2018-08-31T15:42:39.275Z,32.07
2018-08-31T15:45:06.732Z,31.70
2018-08-31T15:47:33.952Z,28.80
2018-08-31T15:50:01.244Z,28.13
2018-08-31T15:52:28.515Z,28.80
2018-08-31T15:54:55.783Z,30.50
2018-08-31T15:57:22.970Z,29.77
2018-08-31T15:59:50.253Z,33.47
2018-08-31T16:02:17.610Z,30.30
2018-08-31T16:04:44.867Z,34.33
2018-08-31T16:07:12.192Z,37.47
2018-08-31T16:09:39.424Z,34.83
2018-08-31T16:12:06.872Z,30.57
2018-08-31T16:14:34.101Z,34.07
2018-08-31T16:17:01.459Z,29.30
2018-08-31T16:19:28.718Z,31.00
2018-08-31T16:21:56.033Z,30.20
2018-08-31T16:24:23.362Z,36.17
2018-08-31T16:26:50.603Z,36.03
2018-08-31T16:29:17.906Z,31.83
2018-08-31T16:31:45.472Z,30.10
2018-08-31T16:34:12.731Z,35.63
2018-08-31T16:36:40.025Z,32.00
2018-08-31T16:39:07.968Z,32.93
2018-08-31T16:41:35.376Z,32.67
2018-08-31T16:44:02.614Z,23.63
2018-08-31T16:46:29.839Z,28.00
2018-08-31T16:48:57.119Z,23.20
2018-08-31T16:51:24.448Z,15.50
2018-08-31T16:53:51.757Z,21.87
2018-08-31T16:56:19.033Z,20.03
2018-08-31T16:58:46.468Z,19.40
2018-08-31T17:01:13.758Z,20.80
2018-08-31T17:03:41.075Z,24.53
2018-08-31T17:06:09.386Z,22.83
2018-08-31T17:08:36.686Z,25.13
2018-08-31T17:11:03.960Z,15.03
2018-08-31T17:13:31.237Z,25.43
2018-08-31T17:15:58.442Z,22.50
2018-08-31T17:18:25.670Z,18.40
2018-08-31T17:20:52.944Z,27.83
2018-08-31T17:23:20.295Z,18.33
2018-08-31T17:25:47.539Z,20.47
2018-08-31T17:28:20.442Z,23.50
2018-08-31T17:30:47.697Z,32.20
2018-08-31T17:33:20.731Z,33.17
2018-08-31T17:35:53.559Z,32.20
2018-08-31T17:38:20.838Z,25.67
2018-08-31T17:40:48.128Z,25.77
2018-08-31T17:43:15.424Z,31.10
2018-08-31T17:45:42.716Z,28.23
2018-08-31T17:48:09.951Z,24.00
2018-08-31T17:50:37.271Z,26.70
2018-08-31T17:53:04.572Z,25.10
2018-08-31T17:55:31.807Z,25.87
2018-08-31T17:57:59.173Z,23.43
2018-08-31T18:00:26.421Z,26.90
2018-08-31T18:02:53.669Z,27.53
2018-08-31T18:05:20.980Z,21.93
2018-08-31T18:07:48.327Z,27.30
2018-08-31T18:10:15.671Z,24.73
2018-08-31T18:12:43.009Z,31.03
2018-08-31T18:15:10.351Z,24.47
2018-08-31T18:17:37.655Z,32.10
2018-08-31T18:20:05.075Z,24.27
2018-08-31T18:22:32.457Z,30.50
2018-08-31T18:24:59.740Z,35.63
2018-08-31T18:27:27.110Z,28.00
2018-08-31T18:29:54.443Z,29.40
2018-08-31T18:32:21.814Z,30.97
2018-08-31T18:34:49.198Z,38.53
2018-08-31T18:37:16.628Z,36.23
2018-08-31T18:39:43.875Z,43.33
2018-08-31T18:42:11.167Z,28.97
2018-08-31T18:44:38.505Z,42.60
2018-08-31T18:47:05.784Z,42.30
2018-08-31T18:49:33.034Z,40.17
2018-08-31T18:52:00.596Z,34.70
2018-08-31T18:54:27.943Z,33.80
2018-08-31T18:56:55.349Z,34.50
2018-08-31T18:59:22.772Z,35.47
2018-08-31T19:01:50.064Z,33.60
2018-08-31T19:04:17.356Z,40.50
2018-08-31T19:06:44.615Z,48.10
2018-08-31T19:09:11.956Z,36.13
2018-08-31T19:11:39.231Z,44.03
2018-08-31T19:14:06.856Z,44.17
2018-08-31T19:16:34.153Z,36.83
2018-08-31T19:19:01.474Z,43.37
2018-08-31T19:21:28.701Z,35.17
2018-08-31T19:23:56.052Z,39.07
2018-08-31T19:26:23.353Z,42.10
2018-08-31T19:28:50.820Z,45.47
2018-08-31T19:31:18.215Z,37.90
2018-08-31T19:33:45.505Z,40.40
2018-08-31T19:36:12.814Z,42.67
2018-08-31T19:38:40.123Z,34.27
2018-08-31T19:41:07.477Z,40.90
2018-08-31T19:43:34.721Z,36.10
2018-08-31T19:46:01.968Z,37.90
2018-08-31T19:48:29.231Z,41.40
2018-08-31T19:50:56.569Z,38.60
2018-08-31T19:53:23.836Z,44.33
2018-08-31T19:55:51.237Z,45.67
2018-08-31T19:58:18.455Z,44.00
2018-08-31T20:00:45.753Z,45.10
2018-08-31T20:03:13.105Z,50.33
2018-08-31T20:05:40.378Z,43.67
2018-08-31T20:08:07.905Z,54.57
2018-08-31T20:10:35.167Z,50.63
2018-08-31T20:13:02.435Z,47.20
2018-08-31T20:15:29.740Z,51.07
2018-08-31T20:17:57.160Z,50.63
2018-08-31T20:20:24.485Z,45.77
2018-08-31T20:22:51.939Z,52.43
2018-08-31T20:25:19.251Z,49.03
2018-08-31T20:27:46.482Z,57.03
2018-08-31T20:30:13.810Z,51.87
2018-08-31T20:32:41.091Z,47.77
2018-08-31T20:35:08.317Z,49.37
2018-08-31T20:37:35.630Z,47.63
2018-08-31T20:40:02.958Z,50.53
2018-08-31T20:42:30.299Z,46.27
2018-08-31T20:44:57.626Z,55.27
2018-08-31T20:47:25.013Z,46.03
2018-08-31T20:49:52.326Z,50.40
2018-08-31T20:52:19.639Z,50.70
2018-08-31T20:54:46.989Z,49.27
2018-08-31T20:57:14.267Z,52.20
2018-08-31T20:59:41.567Z,47.57
2018-08-31T21:02:08.851Z,54.00
2018-08-31T21:04:36.123Z,45.30
2018-08-31T21:07:03.427Z,44.97
2018-08-31T21:09:30.769Z,44.97
2018-08-31T21:11:57.996Z,48.20
2018-08-31T21:14:25.322Z,55.70
2018-08-31T21:16:52.712Z,52.50
2018-08-31T21:19:19.984Z,44.40
2018-08-31T21:21:47.349Z,49.43
2018-08-31T21:24:14.715Z,46.93
2018-08-31T21:26:42.029Z,47.23
2018-08-31T21:29:09.377Z,55.60
2018-08-31T21:31:36.744Z,46.23
2018-08-31T21:34:03.992Z,45.13
2018-08-31T21:36:31.322Z,49.83
2018-08-31T21:38:58.615Z,44.50
2018-08-31T21:41:25.972Z,42.30
2018-08-31T21:43:53.277Z,46.63
2018-08-31T21:46:20.667Z,49.13
2018-08-31T21:48:48.010Z,47.60
2018-08-31T21:51:15.320Z,41.60
2018-08-31T21:53:42.631Z,43.60
2018-08-31T21:56:09.939Z,42.27
2018-08-31T21:58:37.203Z,42.37
2018-08-31T22:01:10.061Z,44.83
2018-08-31T22:03:37.379Z,42.40
2018-08-31T22:06:05.904Z,43.70
2018-08-31T22:08:33.215Z,45.00
2018-08-31T22:11:00.539Z,43.93
2018-08-31T22:13:27.789Z,44.23
2018-08-31T22:15:55.056Z,44.13
2018-08-31T22:18:22.296Z,51.30
2018-08-31T22:20:49.579Z,46.90
2018-08-31T22:23:16.871Z,45.17
2018-08-31T22:25:44.116Z,50.90
2018-08-31T22:28:11.384Z,61.67
2018-08-31T22:30:38.679Z,53.63
2018-08-31T22:33:06.091Z,46.33
2018-08-31T22:35:33.464Z,53.30
2018-08-31T22:38:00.715Z,45.60
2018-08-31T22:40:28.173Z,50.40
2018-08-31T22:42:55.479Z,47.70
2018-08-31T22:45:22.792Z,48.70
2018-08-31T22:47:50.069Z,48.03
2018-08-31T22:50:17.368Z,47.33
2018-08-31T22:52:44.718Z,49.73
2018-08-31T22:55:12.016Z,54.47
2018-08-31T22:57:39.303Z,52.87
2018-08-31T23:00:06.624Z,59.40
2018-08-31T23:02:33.967Z,49.77
2018-08-31T23:05:01.274Z,52.70
2018-08-31T23:07:34.381Z,58.77
2018-08-31T23:10:01.638Z,66.60
2018-08-31T23:12:28.948Z,60.33
2018-08-31T23:14:56.236Z,67.20
2018-08-31T23:17:27.852Z,66.70
2018-08-31T23:19:55.793Z,68.93
2018-08-31T23:22:23.161Z,71.73
2018-08-31T23:24:50.871Z,66.50
2018-08-31T23:27:18.197Z,66.33
2018-08-31T23:29:45.494Z,67.37
2018-08-31T23:32:12.767Z,75.67
2018-08-31T23:34:40.123Z,68.53
2018-08-31T23:37:10.841Z,66.67
2018-08-31T23:39:38.209Z,73.13
2018-08-31T23:42:05.852Z,62.07
2018-08-31T23:44:33.197Z,63.23
2018-08-31T23:47:00.541Z,70.43
2018-08-31T23:49:27.794Z,71.43
2018-08-31T23:51:55.104Z,63.67
2018-08-31T23:54:22.398Z,71.97
2018-08-31T23:56:49.715Z,85.73
2018-08-31T23:59:16.993Z,71.53
